createdAt,value
2022-09-24T00:02:16.614Z,6.18
2022-09-24T00:04:43.140Z,9.40
2022-09-24T00:07:10.995Z,7.80
2022-09-24T00:09:37.518Z,6.28
2022-09-24T00:12:04.041Z,6.47
2022-09-24T00:14:32.365Z,6.00
2022-09-24T00:16:58.852Z,7.82
2022-09-24T00:19:25.375Z,6.38
2022-09-24T00:21:51.864Z,8.43
2022-09-24T00:24:19.735Z,7.75
2022-09-24T00:26:46.233Z,7.35
2022-09-24T00:29:16.460Z,6.88
2022-09-24T00:31:43.125Z,8.27
2022-09-24T00:34:10.168Z,6.50
2022-09-24T00:36:37.565Z,9.90
2022-09-24T00:39:05.327Z,7.57
2022-09-24T00:41:36.370Z,6.72
2022-09-24T00:44:43.175Z,9.20
2022-09-24T00:47:14.062Z,7.88
2022-09-24T00:49:42.180Z,6.07
2022-09-24T00:52:09.270Z,5.55
2022-09-24T00:54:35.914Z,5.10
2022-09-24T00:57:04.157Z,11.18
2022-09-24T00:59:31.015Z,7.65
2022-09-24T01:01:57.650Z,6.80
2022-09-24T01:04:28.534Z,9.38
2022-09-24T01:06:56.434Z,6.32
2022-09-24T01:09:26.067Z,7.85
2022-09-24T01:12:02.999Z,7.03
2022-09-24T01:14:46.117Z,6.15
2022-09-24T01:17:22.240Z,6.80
2022-09-24T01:20:15.193Z,6.28
2022-09-24T01:22:55.828Z,9.65
2022-09-24T01:25:33.100Z,8.02
2022-09-24T01:28:11.695Z,6.10
2022-09-24T01:30:42.402Z,6.13
2022-09-24T01:33:14.598Z,5.18
2022-09-24T01:35:44.795Z,6.20
2022-09-24T01:38:15.219Z,7.20
2022-09-24T01:40:43.407Z,6.40
2022-09-24T01:43:12.336Z,7.35
2022-09-24T01:45:41.113Z,6.68
2022-09-24T01:48:07.775Z,9.68
2022-09-24T01:50:40.323Z,6.25
2022-09-24T01:53:10.372Z,6.40
2022-09-24T01:55:43.676Z,7.53
2022-09-24T01:58:14.505Z,5.55
2022-09-24T02:00:46.275Z,7.18
2022-09-24T02:03:15.859Z,6.35
2022-09-24T02:05:48.454Z,8.18
2022-09-24T02:08:20.097Z,6.60
2022-09-24T02:10:54.149Z,10.52
2022-09-24T02:13:23.726Z,5.55
2022-09-24T02:15:58.269Z,8.23
2022-09-24T02:18:29.730Z,4.50
2022-09-24T02:20:57.998Z,6.25
2022-09-24T02:23:28.124Z,6.30
2022-09-24T02:25:58.993Z,7.60
2022-09-24T02:28:26.700Z,6.53
2022-09-24T02:30:59.622Z,6.20
2022-09-24T02:33:29.858Z,4.70
2022-09-24T02:35:56.942Z,5.82
2022-09-24T02:38:23.895Z,5.93
2022-09-24T02:40:50.991Z,6.93
2022-09-24T02:43:17.583Z,5.28
2022-09-24T02:45:44.110Z,5.63
2022-09-24T02:48:11.972Z,8.20
2022-09-24T02:50:38.486Z,7.05
2022-09-24T02:53:04.975Z,7.75
2022-09-24T02:55:31.525Z,5.38
2022-09-24T02:57:58.027Z,5.72
2022-09-24T03:00:24.567Z,6.60
2022-09-24T03:02:51.220Z,7.90
2022-09-24T03:05:19.174Z,5.50
2022-09-24T03:07:45.805Z,7.68
2022-09-24T03:10:12.351Z,8.77
2022-09-24T03:12:38.939Z,6.43
2022-09-24T03:15:06.233Z,7.93
2022-09-24T03:17:32.735Z,6.13
2022-09-24T03:19:59.315Z,6.82
2022-09-24T03:22:27.162Z,6.50
2022-09-24T03:24:53.677Z,6.45
2022-09-24T03:27:20.286Z,9.90
2022-09-24T03:29:46.819Z,7.95
2022-09-24T03:32:13.326Z,7.10
2022-09-24T03:34:39.861Z,5.88
2022-09-24T03:37:06.388Z,6.60
2022-09-24T03:39:34.258Z,6.28
2022-09-24T03:42:00.798Z,6.93
2022-09-24T03:44:27.306Z,8.18
2022-09-24T03:46:53.848Z,5.32
2022-09-24T03:49:20.377Z,6.50
2022-09-24T03:51:46.882Z,6.70
2022-09-24T03:54:13.414Z,7.85
2022-09-24T03:56:41.292Z,7.95
2022-09-24T03:59:09.822Z,10.45
2022-09-24T04:01:36.405Z,7.97
2022-09-24T04:04:04.027Z,11.73
2022-09-24T04:06:30.908Z,6.78
2022-09-24T04:08:57.805Z,8.85
2022-09-24T04:11:25.068Z,7.45
2022-09-24T04:13:53.031Z,6.47
2022-09-24T04:16:19.652Z,6.63
2022-09-24T04:18:46.193Z,8.63
2022-09-24T04:21:12.741Z,6.63
2022-09-24T04:23:39.242Z,9.18
2022-09-24T04:26:05.778Z,7.05
2022-09-24T04:28:32.320Z,8.38
2022-09-24T04:31:00.379Z,7.72
2022-09-24T04:33:27.099Z,6.55
2022-09-24T04:35:53.670Z,5.95
2022-09-24T04:38:20.244Z,6.72
2022-09-24T04:40:47.441Z,8.40
2022-09-24T04:43:14.098Z,10.90
2022-09-24T04:45:40.652Z,7.20
2022-09-24T04:48:08.547Z,7.18
2022-09-24T04:50:35.090Z,9.80
2022-09-24T04:53:01.850Z,8.25
2022-09-24T04:55:28.474Z,9.13
2022-09-24T04:57:56.554Z,6.18
2022-09-24T05:00:24.311Z,6.32
2022-09-24T05:02:56.641Z,7.80
2022-09-24T05:05:24.906Z,6.55
2022-09-24T05:07:51.430Z,6.15
2022-09-24T05:10:17.997Z,6.38
2022-09-24T05:12:44.506Z,6.70
2022-09-24T05:15:11.071Z,7.82
2022-09-24T05:17:38.734Z,9.23
2022-09-24T05:20:06.292Z,7.75
2022-09-24T05:22:34.165Z,6.40
2022-09-24T05:25:00.681Z,7.85
2022-09-24T05:27:27.193Z,5.85
2022-09-24T05:29:53.754Z,5.40
2022-09-24T05:32:20.321Z,7.97
2022-09-24T05:34:47.374Z,5.70
2022-09-24T05:37:15.067Z,11.10
2022-09-24T05:39:42.949Z,6.65
2022-09-24T05:42:09.878Z,7.60
2022-09-24T05:44:36.427Z,9.43
2022-09-24T05:47:02.959Z,6.22
2022-09-24T05:49:29.505Z,7.93
2022-09-24T05:51:56.039Z,6.60
2022-09-24T05:54:22.575Z,7.68
2022-09-24T05:56:50.445Z,11.98
2022-09-24T05:59:17.011Z,43.28
2022-09-24T06:01:43.550Z,22.80
2022-09-24T06:04:10.356Z,23.02
2022-09-24T06:06:36.910Z,17.45
2022-09-24T06:09:04.125Z,14.88
2022-09-24T06:11:31.346Z,14.50
2022-09-24T06:13:59.239Z,16.52
2022-09-24T06:16:25.816Z,13.77
2022-09-24T06:18:52.394Z,12.65
2022-09-24T06:21:18.911Z,13.38
2022-09-24T06:23:45.829Z,9.98
2022-09-24T06:26:13.749Z,14.02
2022-09-24T06:28:41.381Z,9.90
2022-09-24T06:31:09.586Z,9.30
2022-09-24T06:33:36.193Z,10.57
2022-09-24T06:36:04.264Z,9.88
2022-09-24T06:38:30.928Z,9.98
2022-09-24T06:40:59.744Z,8.43
2022-09-24T06:43:26.339Z,11.02
2022-09-24T06:45:55.137Z,8.23
2022-09-24T06:48:23.506Z,9.52
2022-09-24T06:50:50.437Z,10.68
2022-09-24T06:53:17.669Z,8.77
2022-09-24T06:55:46.837Z,8.10
2022-09-24T06:58:15.511Z,8.00
2022-09-24T07:00:42.271Z,12.35
2022-09-24T07:03:14.678Z,7.95
2022-09-24T07:05:43.722Z,9.30
2022-09-24T07:08:10.851Z,11.45
2022-09-24T07:10:37.848Z,7.93
2022-09-24T07:13:04.409Z,10.35
2022-09-24T07:15:30.941Z,10.50
2022-09-24T07:17:58.009Z,13.32
2022-09-24T07:20:24.694Z,10.52
2022-09-24T07:22:52.781Z,9.23
2022-09-24T07:25:19.519Z,11.50
2022-09-24T07:27:46.050Z,11.50
2022-09-24T07:30:12.899Z,9.10
2022-09-24T07:32:39.468Z,12.15
2022-09-24T07:35:06.954Z,11.10
2022-09-24T07:37:33.627Z,7.72
2022-09-24T07:40:01.897Z,9.00
2022-09-24T07:42:28.552Z,11.73
2022-09-24T07:44:55.102Z,9.68
2022-09-24T07:47:21.619Z,10.65
2022-09-24T07:49:48.245Z,14.13
2022-09-24T07:52:14.833Z,7.95
2022-09-24T07:54:41.372Z,9.85
2022-09-24T07:57:11.679Z,12.70
2022-09-24T07:59:38.225Z,7.95
2022-09-24T08:02:14.027Z,16.63
2022-09-24T08:04:40.672Z,10.23
2022-09-24T08:07:07.247Z,9.38
2022-09-24T08:09:33.788Z,10.63
2022-09-24T08:12:00.712Z,10.18
2022-09-24T08:14:28.614Z,7.50
2022-09-24T08:16:55.146Z,12.48
2022-09-24T08:19:21.682Z,9.90
2022-09-24T08:21:48.215Z,13.50
2022-09-24T08:24:14.811Z,10.82
2022-09-24T08:26:41.430Z,11.52
2022-09-24T08:29:08.304Z,13.65
2022-09-24T08:31:37.018Z,12.43
2022-09-24T08:34:03.582Z,9.80
2022-09-24T08:36:30.089Z,10.25
2022-09-24T08:38:56.824Z,15.93
2022-09-24T08:41:39.018Z,12.95
2022-09-24T08:44:11.704Z,10.15
2022-09-24T08:46:45.904Z,10.27
2022-09-24T08:49:17.742Z,10.80
2022-09-24T08:51:53.660Z,10.35
2022-09-24T08:54:22.672Z,11.35
2022-09-24T08:56:49.996Z,10.13
2022-09-24T08:59:28.145Z,8.93
2022-09-24T09:02:16.704Z,9.02
2022-09-24T09:04:56.302Z,8.55
2022-09-24T09:07:27.873Z,9.10
2022-09-24T09:09:59.296Z,8.88
2022-09-24T09:12:30.802Z,8.60
2022-09-24T09:15:02.599Z,11.70
2022-09-24T09:20:06.094Z,6.97
2022-09-24T09:22:37.971Z,7.15
2022-09-24T09:27:37.822Z,8.15
2022-09-24T09:30:14.339Z,9.52
2022-09-24T09:32:56.277Z,9.27
2022-09-24T09:35:29.859Z,7.65
2022-09-24T09:38:04.123Z,10.43
2022-09-24T09:40:38.868Z,6.75
2022-09-24T09:43:10.741Z,7.90
2022-09-24T09:45:43.427Z,7.05
2022-09-24T09:48:12.037Z,9.38
2022-09-24T09:50:44.374Z,9.45
2022-09-24T09:53:19.306Z,11.52
2022-09-24T09:55:52.685Z,9.70
2022-09-24T09:58:23.395Z,7.22
2022-09-24T10:00:51.299Z,6.65
2022-09-24T10:03:26.075Z,7.00
2022-09-24T10:05:56.025Z,8.50
2022-09-24T10:08:23.402Z,12.40
2022-09-24T10:10:53.932Z,9.05
2022-09-24T10:16:26.352Z,9.13
2022-09-24T10:18:53.072Z,8.73
2022-09-24T10:21:29.374Z,9.32
2022-09-24T10:24:00.475Z,8.90
2022-09-24T10:26:34.751Z,7.93
2022-09-24T10:29:01.459Z,8.80
2022-09-24T10:31:35.153Z,8.63
2022-09-24T10:34:02.428Z,11.25
2022-09-24T10:36:30.980Z,12.77
2022-09-24T10:39:04.800Z,7.47
2022-09-24T10:41:32.140Z,10.63
2022-09-24T10:44:03.549Z,8.88
2022-09-24T10:46:56.280Z,17.48
2022-09-24T10:49:34.260Z,11.32
2022-09-24T10:52:09.544Z,10.57
2022-09-24T10:54:48.267Z,13.23
2022-09-24T10:57:25.027Z,11.20
2022-09-24T11:00:02.637Z,11.15
2022-09-24T11:03:22.773Z,11.88
2022-09-24T11:05:53.679Z,11.60
2022-09-24T11:08:31.317Z,11.60
2022-09-24T11:11:19.892Z,13.52
2022-09-24T11:13:54.776Z,10.65
2022-09-24T11:16:38.851Z,11.38
2022-09-24T11:19:13.017Z,13.48
2022-09-24T11:21:55.582Z,11.52
2022-09-24T11:24:44.883Z,12.02
2022-09-24T11:27:34.702Z,9.68
2022-09-24T11:30:10.197Z,10.93
2022-09-24T11:32:49.124Z,10.75
2022-09-24T11:35:29.058Z,13.02
2022-09-24T11:38:03.217Z,18.60
2022-09-24T11:40:42.515Z,13.98
2022-09-24T11:43:38.873Z,12.07
2022-09-24T11:46:18.024Z,11.20
2022-09-24T11:49:06.719Z,13.02
2022-09-24T11:51:46.209Z,12.65
2022-09-24T11:54:24.836Z,11.10
2022-09-24T11:56:57.439Z,11.70
2022-09-24T11:59:35.371Z,11.85
2022-09-24T12:02:10.395Z,13.25
2022-09-24T12:04:48.150Z,12.40
2022-09-24T12:07:18.627Z,15.00
2022-09-24T12:09:51.854Z,12.02
2022-09-24T12:12:24.150Z,13.13
2022-09-24T12:14:57.252Z,16.30
2022-09-24T12:17:29.070Z,15.73
2022-09-24T12:22:27.203Z,16.48
2022-09-24T12:24:57.675Z,15.65
2022-09-24T12:27:30.329Z,14.27
2022-09-24T12:30:04.784Z,14.23
2022-09-24T12:32:42.463Z,14.63
2022-09-24T12:35:18.047Z,15.13
2022-09-24T12:37:48.671Z,15.27
2022-09-24T12:40:33.356Z,15.90
2022-09-24T12:43:03.917Z,13.40
2022-09-24T12:45:32.559Z,15.18
2022-09-24T12:48:01.674Z,17.67
2022-09-24T12:50:31.069Z,12.05
2022-09-24T12:52:57.696Z,15.63
2022-09-24T12:55:28.304Z,14.63
2022-09-24T12:57:58.160Z,13.63
2022-09-24T13:00:37.792Z,15.80
2022-09-24T13:03:05.234Z,19.17
2022-09-24T13:05:45.999Z,16.33
2022-09-24T13:08:24.666Z,17.20
2022-09-24T13:10:56.611Z,14.95
2022-09-24T13:16:00.467Z,17.30
2022-09-24T13:18:27.698Z,14.10
2022-09-24T13:21:03.949Z,15.27
2022-09-24T13:23:42.627Z,17.30
2022-09-24T13:26:13.974Z,17.42
2022-09-24T13:28:51.148Z,17.13
2022-09-24T13:31:25.466Z,13.68
2022-09-24T13:33:59.961Z,17.17
2022-09-24T13:36:35.535Z,14.88
2022-09-24T13:39:10.198Z,16.55
2022-09-24T13:41:46.853Z,13.48
2022-09-24T13:44:19.140Z,17.38
2022-09-24T13:46:47.225Z,15.70
2022-09-24T13:49:16.968Z,18.23
2022-09-24T13:51:47.523Z,19.52
2022-09-24T13:54:22.542Z,23.77
2022-09-24T13:56:59.048Z,16.85
2022-09-24T13:59:25.615Z,14.90
2022-09-24T14:01:52.298Z,17.48
2022-09-24T14:04:21.936Z,20.65
2022-09-24T14:06:51.427Z,17.35
2022-09-24T14:09:27.728Z,17.45
2022-09-24T14:11:55.838Z,20.50
2022-09-24T14:14:25.588Z,14.55
2022-09-24T14:16:52.335Z,14.70
2022-09-24T14:19:18.900Z,19.67
2022-09-24T14:21:49.459Z,17.48
2022-09-24T14:24:21.094Z,15.98
2022-09-24T14:26:51.624Z,14.30
2022-09-24T14:29:22.047Z,18.05
2022-09-24T14:31:53.885Z,17.83
2022-09-24T14:36:56.757Z,14.98
2022-09-24T14:39:27.592Z,19.60
2022-09-24T14:41:56.959Z,20.17
2022-09-24T14:44:26.203Z,22.92
2022-09-24T14:46:57.671Z,21.75
2022-09-24T14:49:27.179Z,22.40
2022-09-24T14:51:55.990Z,17.80
2022-09-24T14:54:28.749Z,17.33
2022-09-24T14:56:55.739Z,16.52
2022-09-24T14:59:29.433Z,17.48
2022-09-24T15:02:12.841Z,17.80
2022-09-24T15:04:39.669Z,16.13
2022-09-24T15:07:06.187Z,17.15
2022-09-24T15:09:32.818Z,17.50
2022-09-24T15:12:07.124Z,16.42
2022-09-24T15:14:33.870Z,16.48
2022-09-24T15:17:10.837Z,16.80
2022-09-24T15:19:37.366Z,16.80
2022-09-24T15:22:03.861Z,14.85
2022-09-24T15:24:30.388Z,16.58
2022-09-24T15:27:02.220Z,14.65
2022-09-24T15:31:56.652Z,15.40
2022-09-24T15:34:24.824Z,16.67
2022-09-24T15:36:54.567Z,15.65
2022-09-24T15:39:21.986Z,16.10
2022-09-24T15:41:48.585Z,16.98
2022-09-24T15:44:20.532Z,16.35
2022-09-24T15:49:13.652Z,16.40
2022-09-24T15:51:41.601Z,15.50
2022-09-24T15:54:09.365Z,17.77
2022-09-24T15:56:35.918Z,17.10
2022-09-24T15:59:05.345Z,16.38
2022-09-24T16:01:32.009Z,16.33
2022-09-24T16:03:58.594Z,18.15
2022-09-24T16:06:25.124Z,20.17
2022-09-24T16:08:53.018Z,21.08
2022-09-24T16:11:19.595Z,16.38
2022-09-24T16:13:46.138Z,25.35
2022-09-24T16:16:12.742Z,22.70
2022-09-24T16:18:39.344Z,19.75
2022-09-24T16:21:06.776Z,19.20
2022-09-24T16:23:33.431Z,24.35
2022-09-24T16:26:01.851Z,21.67
2022-09-24T16:28:29.221Z,18.45
2022-09-24T16:30:56.102Z,17.95
2022-09-24T16:33:22.851Z,19.10
2022-09-24T16:35:49.534Z,19.50
2022-09-24T16:38:22.286Z,18.42
2022-09-24T16:40:49.613Z,20.33
2022-09-24T16:43:17.638Z,18.60
2022-09-24T16:45:44.332Z,18.15
2022-09-24T16:48:11.364Z,22.20
2022-09-24T16:50:37.909Z,22.13
2022-09-24T16:53:04.445Z,20.73
2022-09-24T16:55:30.996Z,17.90
2022-09-24T16:57:57.528Z,19.58
2022-09-24T17:00:25.426Z,20.88
2022-09-24T17:02:52.059Z,23.65
2022-09-24T17:05:18.672Z,21.58
2022-09-24T17:07:45.219Z,20.83
2022-09-24T17:10:11.786Z,19.50
2022-09-24T17:12:38.321Z,20.52
2022-09-24T17:15:05.867Z,18.88
2022-09-24T17:17:43.051Z,21.17
2022-09-24T17:20:13.104Z,22.23
2022-09-24T17:22:39.930Z,19.15
2022-09-24T17:25:08.063Z,19.70
2022-09-24T17:27:34.848Z,18.55
2022-09-24T17:30:01.677Z,18.33
2022-09-24T17:32:28.257Z,17.27
2022-09-24T17:34:56.313Z,16.77
2022-09-24T17:37:22.977Z,18.67
2022-09-24T17:39:49.563Z,18.85
2022-09-24T17:42:16.130Z,17.10
2022-09-24T17:44:42.875Z,20.65
2022-09-24T17:47:09.564Z,15.55
2022-09-24T17:49:36.199Z,19.80
2022-09-24T17:52:05.505Z,18.45
2022-09-24T17:54:32.338Z,16.83
2022-09-24T17:56:58.891Z,14.95
2022-09-24T17:59:27.018Z,17.52
2022-09-24T18:01:54.231Z,19.58
2022-09-24T18:04:21.577Z,20.73
2022-09-24T18:06:49.064Z,20.40
2022-09-24T18:09:17.785Z,17.40
2022-09-24T18:11:46.351Z,16.92
2022-09-24T18:14:14.713Z,20.23
2022-09-24T18:16:41.660Z,15.82
2022-09-24T18:19:10.261Z,15.70
2022-09-24T18:21:37.195Z,18.77
2022-09-24T18:24:03.883Z,17.25
2022-09-24T18:26:33.610Z,15.10
2022-09-24T18:29:01.933Z,19.33
2022-09-24T18:31:29.724Z,14.68
2022-09-24T18:34:00.257Z,15.40
2022-09-24T18:36:26.857Z,14.95
2022-09-24T18:38:53.435Z,18.92
2022-09-24T18:41:22.778Z,17.27
2022-09-24T18:43:51.084Z,17.45
2022-09-24T18:46:19.198Z,18.52
2022-09-24T18:48:47.535Z,19.02
2022-09-24T18:51:17.554Z,16.65
2022-09-24T18:53:44.404Z,15.35
2022-09-24T18:56:11.341Z,17.75
2022-09-24T18:58:37.913Z,14.57
2022-09-24T19:01:06.152Z,35.92
2022-09-24T19:03:32.747Z,19.85
2022-09-24T19:06:01.831Z,21.02
2022-09-24T19:08:28.554Z,16.92
2022-09-24T19:10:55.537Z,16.30
2022-09-24T19:13:26.177Z,18.67
2022-09-24T19:15:53.200Z,17.37
2022-09-24T19:18:21.128Z,16.63
2022-09-24T19:20:47.809Z,17.52
2022-09-24T19:23:15.190Z,15.70
2022-09-24T19:25:42.818Z,17.38
2022-09-24T19:28:11.994Z,14.63
2022-09-24T19:30:39.759Z,14.70
2022-09-24T19:33:06.332Z,15.82
2022-09-24T19:35:34.268Z,18.80
2022-09-24T19:38:00.830Z,23.63
2022-09-24T19:40:27.420Z,33.95
2022-09-24T19:42:54.010Z,27.52
2022-09-24T19:45:20.678Z,18.08
2022-09-24T19:47:47.257Z,14.38
2022-09-24T19:50:17.341Z,14.75
2022-09-24T19:52:45.792Z,15.63
2022-09-24T19:55:12.359Z,15.80
2022-09-24T19:57:38.895Z,24.92
2022-09-24T20:00:06.820Z,15.52
2022-09-24T20:02:33.489Z,17.35
2022-09-24T20:05:00.109Z,13.30
2022-09-24T20:07:26.677Z,14.15
2022-09-24T20:09:54.588Z,17.33
2022-09-24T20:12:21.132Z,19.90
2022-09-24T20:14:47.694Z,21.90
2022-09-24T20:17:14.627Z,13.68
2022-09-24T20:19:41.193Z,12.65
2022-09-24T20:22:08.930Z,15.07
2022-09-24T20:24:35.880Z,14.07
2022-09-24T20:27:03.867Z,17.02
2022-09-24T20:29:30.446Z,13.93
2022-09-24T20:31:57.001Z,19.02
2022-09-24T20:34:25.392Z,15.38
2022-09-24T20:36:51.966Z,14.13
2022-09-24T20:39:18.841Z,15.57
2022-09-24T20:41:45.624Z,16.65
2022-09-24T20:44:13.564Z,15.77
2022-09-24T20:46:40.197Z,13.23
2022-09-24T20:49:06.905Z,18.52
2022-09-24T20:51:33.491Z,17.92
2022-09-24T20:54:00.960Z,19.98
2022-09-24T20:56:28.225Z,23.17
2022-09-24T20:58:54.791Z,19.65
2022-09-24T21:01:23.006Z,23.33
2022-09-24T21:03:49.701Z,24.60
2022-09-24T21:06:17.461Z,28.77
2022-09-24T21:08:45.495Z,25.60
2022-09-24T21:11:13.949Z,24.83
2022-09-24T21:13:41.898Z,31.35
2022-09-24T21:16:08.994Z,26.80
2022-09-24T21:18:40.431Z,21.83
2022-09-24T21:21:09.037Z,25.50
2022-09-24T21:23:35.577Z,29.35
2022-09-24T21:26:08.921Z,28.45
2022-09-24T21:28:35.537Z,25.08
2022-09-24T21:31:02.177Z,22.48
2022-09-24T21:33:28.881Z,18.17
2022-09-24T21:35:59.813Z,25.70
2022-09-24T21:38:26.397Z,23.02
2022-09-24T21:40:53.101Z,18.67
2022-09-24T21:43:19.984Z,22.40
2022-09-24T21:45:46.857Z,22.48
2022-09-24T21:48:13.432Z,23.05
2022-09-24T21:50:40.522Z,22.02
2022-09-24T21:53:08.453Z,18.45
2022-09-24T21:55:35.007Z,22.27
2022-09-24T21:58:01.597Z,21.73
2022-09-24T22:00:28.161Z,20.02
2022-09-24T22:02:54.722Z,18.65
2022-09-24T22:05:21.301Z,19.48
2022-09-24T22:07:47.830Z,24.90
2022-09-24T22:10:15.837Z,31.17
2022-09-24T22:12:42.372Z,29.42
2022-09-24T22:15:09.545Z,26.92
2022-09-24T22:17:36.109Z,28.35
2022-09-24T22:20:03.126Z,27.23
2022-09-24T22:22:29.676Z,30.02
2022-09-24T22:24:56.225Z,32.15
2022-09-24T22:27:24.242Z,29.05
2022-09-24T22:29:50.811Z,34.30
2022-09-24T22:32:17.342Z,26.30
2022-09-24T22:34:43.892Z,30.52
2022-09-24T22:37:10.454Z,27.90
2022-09-24T22:39:37.044Z,29.08
2022-09-24T22:42:04.194Z,29.08
2022-09-24T22:44:33.213Z,24.80
2022-09-24T22:46:59.740Z,26.05
2022-09-24T22:49:26.289Z,27.60
2022-09-24T22:51:52.855Z,28.50
2022-09-24T22:54:19.522Z,26.88
2022-09-24T22:56:46.059Z,24.98
2022-09-24T22:59:12.627Z,23.63
2022-09-24T23:01:42.298Z,23.55
2022-09-24T23:04:09.849Z,24.45
2022-09-24T23:06:36.511Z,25.33
2022-09-24T23:09:03.516Z,24.05
2022-09-24T23:11:31.576Z,26.45
2022-09-24T23:14:00.132Z,25.55
2022-09-24T23:16:28.259Z,24.92
2022-09-24T23:18:57.873Z,23.38
2022-09-24T23:21:26.062Z,20.85
2022-09-24T23:23:53.936Z,20.90
2022-09-24T23:26:22.266Z,22.27
2022-09-24T23:28:49.474Z,21.35
2022-09-24T23:31:16.591Z,24.90
2022-09-24T23:33:44.150Z,24.15
2022-09-24T23:36:13.375Z,24.88
2022-09-24T23:38:40.925Z,20.30
2022-09-24T23:41:07.928Z,21.20
2022-09-24T23:43:35.168Z,23.60
2022-09-24T23:46:02.235Z,22.27
2022-09-24T23:48:29.166Z,22.60
2022-09-24T23:50:55.752Z,19.35
2022-09-24T23:53:24.075Z,18.50
2022-09-24T23:55:51.773Z,22.70
2022-09-24T23:58:20.325Z,19.73
